Time;durP1;ratioP1;P1;durP2;ratioP2;P2;SDS_P1;SDS_P2;PMS_P1;PMS_P2;Temp;Humidity;BMP_temperature;BMP_pressure;BME280_temperature;BME280_humidity;BME280_pressure;Samples;Min_cycle;Max_cycle;Signal;HPM_P1;HPM_P2
2021/11/24 00:01:47;;;;;;;10.73;6.57;;;4.10;66.20;;;;;;4620260;28;20069;-74
2021/11/24 00:04:04;;;;;;;12.32;6.53;;;4.10;66.20;;;;;;4621965;28;20096;-74
2021/11/24 00:06:20;;;;;;;14.75;7.43;;;4.00;66.30;;;;;;4644067;28;20047;-74
2021/11/24 00:08:37;;;;;;;11.00;6.22;;;4.00;66.40;;;;;;4638699;28;20048;-74
2021/11/24 00:10:55;;;;;;;11.32;6.63;;;4.00;66.50;;;;;;4637749;28;20037;-74
2021/11/24 00:13:11;;;;;;;13.52;6.90;;;4.00;66.50;;;;;;4620877;28;20051;-74
2021/11/24 00:15:28;;;;;;;11.70;6.70;;;4.00;66.50;;;;;;4621523;28;20545;-74
2021/11/24 00:17:44;;;;;;;10.93;6.63;;;4.00;66.60;;;;;;4638192;28;20041;-74
2021/11/24 00:20:04;;;;;;;11.82;6.80;;;4.00;66.50;;;;;;4630193;28;20063;-73
2021/11/24 00:22:21;;;;;;;10.70;6.75;;;4.00;66.60;;;;;;4648991;28;20064;-74
2021/11/24 00:24:40;;;;;;;25.10;13.80;;;4.00;66.70;;;;;;4648286;28;20041;-75
2021/11/24 00:26:58;;;;;;;14.88;7.65;;;4.00;66.70;;;;;;4648625;28;20048;-73
2021/11/24 00:29:15;;;;;;;12.95;7.53;;;4.00;66.70;;;;;;4629954;28;20076;-73
2021/11/24 00:31:31;;;;;;;13.10;7.47;;;3.90;66.70;;;;;;4629890;28;20051;-72
2021/11/24 00:33:48;;;;;;;12.98;7.05;;;3.90;66.70;;;;;;4630434;28;20052;-71
2021/11/24 00:36:05;;;;;;;14.35;7.00;;;3.90;66.70;;;;;;4648193;28;20494;-72
2021/11/24 00:38:21;;;;;;;12.38;6.95;;;3.90;66.90;;;;;;4630901;28;20045;-72
2021/11/24 00:40:38;;;;;;;14.85;7.10;;;3.90;66.80;;;;;;4630068;28;20053;-73
2021/11/24 00:42:56;;;;;;;14.95;7.25;;;3.90;66.90;;;;;;4648809;28;20045;-72
2021/11/24 00:45:13;;;;;;;15.40;7.35;;;3.80;66.90;;;;;;4629999;28;20041;-72
2021/11/24 00:47:30;;;;;;;14.07;7.30;;;3.90;67.00;;;;;;4630536;28;20466;-72
2021/11/24 00:49:46;;;;;;;12.30;7.18;;;3.80;67.00;;;;;;4647919;28;20084;-72
2021/11/24 00:52:03;;;;;;;12.30;6.90;;;3.80;67.00;;;;;;4645673;28;20063;-72
2021/11/24 00:54:19;;;;;;;12.82;7.25;;;3.80;67.00;;;;;;4645688;28;20392;-72
2021/11/24 00:56:36;;;;;;;11.38;6.57;;;3.80;67.10;;;;;;4615348;28;20500;-72
2021/11/24 00:58:54;;;;;;;12.90;6.22;;;3.80;67.20;;;;;;4627643;28;20487;-72
2021/11/24 01:01:10;;;;;;;14.75;6.80;;;3.80;67.30;;;;;;4610505;28;20544;-72
2021/11/24 01:03:30;;;;;;;12.40;6.75;;;3.80;67.30;;;;;;4627418;28;20076;-72
2021/11/24 01:05:46;;;;;;;13.27;7.35;;;3.80;67.40;;;;;;4646761;28;20040;-72
2021/11/24 01:08:03;;;;;;;13.18;6.97;;;3.70;67.30;;;;;;4647421;28;20041;-71
2021/11/24 01:10:19;;;;;;;13.20;6.20;;;3.70;67.30;;;;;;4630470;28;20076;-71
2021/11/24 01:12:37;;;;;;;12.45;6.57;;;3.70;67.30;;;;;;4630064;28;20083;-71
2021/11/24 01:14:54;;;;;;;10.93;6.55;;;3.70;67.30;;;;;;4630087;28;20048;-72
2021/11/24 01:17:11;;;;;;;13.98;7.57;;;3.70;68.10;;;;;;4650594;28;20075;-72
2021/11/24 01:19:27;;;;;;;14.13;6.80;;;3.70;67.40;;;;;;4633045;28;20487;-72
2021/11/24 01:21:47;;;;;;;10.95;6.20;;;3.60;68.10;;;;;;4651604;28;20393;-71
2021/11/24 01:24:04;;;;;;;12.32;6.85;;;3.60;67.40;;;;;;4633141;28;20068;-72
2021/11/24 01:26:21;;;;;;;11.82;6.95;;;3.60;67.60;;;;;;4633537;28;20051;-71
2021/11/24 01:28:37;;;;;;;11.15;6.60;;;3.60;67.60;;;;;;4632156;28;20048;-71
2021/11/24 01:30:55;;;;;;;10.20;6.20;;;3.60;67.60;;;;;;4632709;28;20076;-72
2021/11/24 01:33:15;;;;;;;13.52;6.63;;;3.60;67.70;;;;;;4632765;28;20067;-72
2021/11/24 01:35:31;;;;;;;10.93;6.15;;;3.60;67.70;;;;;;4633332;28;20041;-71
2021/11/24 01:37:48;;;;;;;10.60;6.47;;;3.60;67.60;;;;;;4630915;28;20075;-70
2021/11/24 01:40:06;;;;;;;13.05;6.57;;;3.50;67.70;;;;;;4632915;28;20445;-71
2021/11/24 01:42:22;;;;;;;10.80;5.80;;;3.50;67.80;;;;;;4642973;28;20394;-71
2021/11/24 01:44:41;;;;;;;11.70;6.40;;;3.50;67.90;;;;;;4633204;28;20127;-72
2021/11/24 01:47:02;;;;;;;11.48;5.97;;;3.50;68.70;;;;;;4632590;28;20041;-72
2021/11/24 01:49:21;;;;;;;11.85;6.40;;;3.40;67.90;;;;;;4632950;28;20665;-72
2021/11/24 01:51:37;;;;;;;12.90;6.63;;;3.40;68.00;;;;;;4632712;28;20503;-71
2021/11/24 01:53:56;;;;;;;9.00;6.00;;;3.50;68.00;;;;;;4650614;28;20127;-71
2021/11/24 01:56:13;;;;;;;10.45;5.93;;;3.40;68.00;;;;;;4631346;28;20117;-72
2021/11/24 01:58:34;;;;;;;11.00;5.85;;;3.40;68.10;;;;;;4631731;28;20068;-72
2021/11/24 02:00:51;;;;;;;10.57;5.97;;;3.40;69.00;;;;;;4632702;28;20091;-72
2021/11/24 02:03:09;;;;;;;10.95;5.82;;;3.40;68.20;;;;;;4650120;28;20052;-72
2021/11/24 02:05:25;;;;;;;9.77;5.40;;;3.40;68.20;;;;;;4649396;28;20083;-72
2021/11/24 02:07:42;;;;;;;10.90;5.80;;;3.40;68.30;;;;;;4650061;28;20123;-72
2021/11/24 02:09:58;;;;;;;10.60;5.90;;;3.40;68.20;;;;;;4632775;28;20040;-72
2021/11/24 02:12:16;;;;;;;12.27;6.07;;;3.40;68.30;;;;;;4649535;28;20084;-72
2021/11/24 02:14:32;;;;;;;11.70;5.70;;;3.40;68.40;;;;;;4648805;28;20041;-72
2021/11/24 02:16:53;;;;;;;10.90;5.63;;;3.40;68.30;;;;;;4630002;28;20051;-73
2021/11/24 02:19:11;;;;;;;11.93;5.93;;;3.40;68.30;;;;;;4648928;28;20072;-72
2021/11/24 02:21:29;;;;;;;12.60;5.20;;;3.40;68.20;;;;;;4648261;28;20044;-73
2021/11/24 02:23:45;;;;;;;14.93;5.65;;;3.40;68.40;;;;;;4648274;28;20128;-73
2021/11/24 02:26:01;;;;;;;9.40;5.55;;;3.40;68.50;;;;;;4630129;28;20594;-73
2021/11/24 02:28:18;;;;;;;11.57;5.57;;;3.40;68.50;;;;;;4648992;28;20055;-72
2021/11/24 02:30:37;;;;;;;11.15;5.95;;;3.40;68.50;;;;;;4650035;28;20060;-72
2021/11/24 02:32:55;;;;;;;10.98;5.30;;;3.40;68.50;;;;;;4631886;28;20076;-72
2021/11/24 02:35:14;;;;;;;8.80;5.05;;;3.40;68.50;;;;;;4650114;28;20402;-72
2021/11/24 02:37:32;;;;;;;11.68;5.63;;;3.40;68.40;;;;;;4649685;28;20037;-72
2021/11/24 02:39:49;;;;;;;10.63;5.82;;;3.40;68.40;;;;;;4650230;28;20072;-71
2021/11/24 02:42:08;;;;;;;12.75;5.63;;;3.40;68.50;;;;;;4631583;28;20750;-71
2021/11/24 02:44:29;;;;;;;10.05;5.72;;;3.30;68.60;;;;;;4632145;28;20049;-71
2021/11/24 02:46:48;;;;;;;14.60;5.72;;;3.30;68.70;;;;;;4649437;28;20072;-71
2021/11/24 02:49:04;;;;;;;12.75;5.57;;;3.30;68.70;;;;;;4632049;28;20419;-70
2021/11/24 02:51:21;;;;;;;10.75;5.45;;;3.30;68.80;;;;;;4631309;28;20179;-71
2021/11/24 02:53:39;;;;;;;14.60;6.35;;;3.30;68.80;;;;;;4631987;28;20091;-72
2021/11/24 02:55:55;;;;;;;11.43;5.45;;;3.20;69.00;;;;;;4649174;28;20049;-71
2021/11/24 02:58:12;;;;;;;11.52;5.13;;;3.30;69.00;;;;;;4649795;28;20127;-72
2021/11/24 03:00:33;;;;;;;11.90;5.53;;;3.30;69.00;;;;;;4631440;28;20072;-71
2021/11/24 03:02:50;;;;;;;8.95;5.10;;;3.30;69.60;;;;;;4649599;28;20040;-71
2021/11/24 03:05:08;;;;;;;10.10;5.20;;;3.20;69.10;;;;;;4649264;28;20047;-71
2021/11/24 03:07:24;;;;;;;10.77;5.25;;;3.20;69.10;;;;;;4649347;28;20060;-71
2021/11/24 03:09:42;;;;;;;10.32;5.40;;;3.30;69.20;;;;;;4649522;28;20044;-71
2021/11/24 03:11:58;;;;;;;9.50;5.18;;;3.30;69.20;;;;;;4648977;28;20052;-71
2021/11/24 03:14:15;;;;;;;13.18;5.57;;;3.30;69.20;;;;;;4649750;28;20076;-71
2021/11/24 03:16:31;;;;;;;10.88;6.50;;;3.30;69.20;;;;;;4631032;28;20093;-71
2021/11/24 03:18:47;;;;;;;8.13;4.90;;;3.20;69.20;;;;;;4649458;28;20052;-71
2021/11/24 03:21:07;;;;;;;10.20;5.30;;;3.20;70.00;;;;;;4648781;28;20051;-71
2021/11/24 03:23:23;;;;;;;12.50;5.63;;;3.20;70.00;;;;;;4649363;28;20052;-72
2021/11/24 03:25:41;;;;;;;8.80;4.75;;;3.20;69.20;;;;;;4630754;28;20047;-72
2021/11/24 03:27:58;;;;;;;10.20;5.30;;;3.20;69.30;;;;;;4631635;28;20688;-72
2021/11/24 03:30:17;;;;;;;9.75;4.80;;;3.20;69.40;;;;;;4648695;28;20044;-72
2021/11/24 03:32:34;;;;;;;10.93;5.25;;;3.20;69.40;;;;;;4649514;28;20067;-72
2021/11/24 03:34:50;;;;;;;9.30;4.90;;;3.10;69.40;;;;;;4630702;28;20072;-72
2021/11/24 03:37:07;;;;;;;10.40;5.10;;;3.10;69.40;;;;;;4631414;28;20036;-72
2021/11/24 03:39:23;;;;;;;10.52;5.78;;;3.20;69.60;;;;;;4630104;28;20045;-72
2021/11/24 03:41:41;;;;;;;8.43;4.40;;;3.10;69.40;;;;;;4631214;28;20072;-72
2021/11/24 03:43:57;;;;;;;10.18;4.82;;;3.10;69.60;;;;;;4648686;28;20048;-72
2021/11/24 03:46:14;;;;;;;8.30;5.47;;;3.10;69.60;;;;;;4630987;28;20495;-72
2021/11/24 03:48:33;;;;;;;9.05;4.88;;;3.10;69.70;;;;;;4648914;28;20068;-71
2021/11/24 03:50:50;;;;;;;8.57;4.57;;;3.10;69.80;;;;;;4630577;28;20036;-71
2021/11/24 03:53:06;;;;;;;9.98;4.97;;;3.10;69.80;;;;;;4630627;28;20447;-71
2021/11/24 03:55:23;;;;;;;9.35;4.80;;;3.10;69.70;;;;;;4630537;28;20135;-73
2021/11/24 03:57:41;;;;;;;10.15;5.05;;;3.10;69.70;;;;;;4647731;28;20048;-73
2021/11/24 03:59:57;;;;;;;9.25;4.88;;;3.10;69.80;;;;;;4648487;28;20051;-72
2021/11/24 04:02:17;;;;;;;9.35;4.50;;;3.00;69.70;;;;;;4630996;28;20528;-73
2021/11/24 04:04:34;;;;;;;6.75;4.18;;;3.00;69.90;;;;;;4630231;28;20045;-72
2021/11/24 04:06:50;;;;;;;8.32;4.20;;;3.00;69.90;;;;;;4630987;28;20045;-72
2021/11/24 04:09:07;;;;;;;8.60;4.50;;;3.00;69.90;;;;;;4648429;28;20080;-73
2021/11/24 04:11:23;;;;;;;9.52;5.15;;;3.00;70.00;;;;;;4648930;28;20060;-71
2021/11/24 04:13:41;;;;;;;10.20;4.82;;;3.00;70.00;;;;;;4648165;28;20233;-71
2021/11/24 04:16:00;;;;;;;10.88;4.47;;;3.00;70.00;;;;;;4631026;28;20041;-71
2021/11/24 04:18:17;;;;;;;7.20;3.97;;;3.00;69.90;;;;;;4648252;28;20564;-71
2021/11/24 04:20:33;;;;;;;7.35;4.53;;;3.00;70.00;;;;;;4648756;28;20537;-71
2021/11/24 04:22:50;;;;;;;8.75;4.45;;;3.00;70.00;;;;;;4648268;28;20049;-70
2021/11/24 04:25:10;;;;;;;10.10;4.97;;;3.00;70.00;;;;;;4630613;28;20828;-71
2021/11/24 04:27:26;;;;;;;9.95;4.53;;;3.00;70.10;;;;;;4630650;28;20208;-70
2021/11/24 04:29:44;;;;;;;9.63;4.88;;;3.00;70.10;;;;;;4630378;28;20069;-72
2021/11/24 04:32:01;;;;;;;8.95;4.53;;;2.90;70.10;;;;;;4648719;28;20095;-71
2021/11/24 04:34:17;;;;;;;7.43;4.47;;;2.90;70.10;;;;;;4648266;28;20052;-71
2021/11/24 04:36:33;;;;;;;11.38;4.72;;;2.90;70.10;;;;;;4648710;28;20410;-71
2021/11/24 04:38:50;;;;;;;10.38;4.43;;;2.90;70.20;;;;;;4630133;28;20434;-72
2021/11/24 04:41:06;;;;;;;7.25;4.13;;;2.80;70.20;;;;;;4630652;28;20052;-72
2021/11/24 04:43:28;;;;;;;9.18;5.57;;;2.80;70.20;;;;;;4648146;28;20711;-72
2021/11/24 04:45:49;;;;;;;8.10;4.75;;;2.80;70.20;;;;;;4630700;28;20095;-72
2021/11/24 04:48:06;;;;;;;7.88;4.45;;;2.80;70.30;;;;;;4647936;28;20051;-72
2021/11/24 04:50:23;;;;;;;6.60;4.10;;;2.80;70.20;;;;;;4630567;28;20080;-72
2021/11/24 04:52:39;;;;;;;6.38;4.30;;;2.80;70.30;;;;;;4651110;28;20067;-72
2021/11/24 04:54:55;;;;;;;6.63;3.92;;;2.80;70.40;;;;;;4634106;28;20041;-71
2021/11/24 04:57:12;;;;;;;6.53;4.13;;;2.80;70.40;;;;;;4633254;28;20073;-71
2021/11/24 04:59:31;;;;;;;6.93;3.88;;;2.80;70.50;;;;;;4652042;28;20052;-71
2021/11/24 05:01:49;;;;;;;7.70;3.92;;;2.80;70.40;;;;;;4651535;28;20442;-71
2021/11/24 05:04:07;;;;;;;11.38;4.47;;;2.80;70.50;;;;;;4633731;28;20138;-71
2021/11/24 05:06:24;;;;;;;10.73;3.83;;;2.80;70.60;;;;;;4633473;28;20052;-71
2021/11/24 05:08:41;;;;;;;8.30;4.13;;;2.70;70.50;;;;;;4651516;28;20041;-71
2021/11/24 05:10:58;;;;;;;7.72;4.20;;;2.70;71.40;;;;;;4651623;28;20091;-71
2021/11/24 05:13:19;;;;;;;7.88;4.25;;;2.70;70.60;;;;;;4650964;28;20044;-71
2021/11/24 05:15:38;;;;;;;9.10;4.07;;;2.70;70.70;;;;;;4633737;28;20045;-71
2021/11/24 05:18:02;;;;;;;11.40;4.32;;;2.80;70.70;;;;;;4650885;28;20044;-72
2021/11/24 05:20:22;;;;;;;7.10;4.05;;;2.70;70.60;;;;;;4650455;28;20083;-72
2021/11/24 05:22:38;;;;;;;7.38;4.32;;;2.70;70.70;;;;;;4630801;28;20055;-72
2021/11/24 05:24:55;;;;;;;11.07;4.63;;;2.70;70.70;;;;;;4615319;28;20049;-72
2021/11/24 05:27:12;;;;;;;8.32;4.30;;;2.70;70.70;;;;;;4614542;28;20480;-72
2021/11/24 05:29:28;;;;;;;8.43;4.30;;;2.70;70.70;;;;;;4615226;28;20092;-71
2021/11/24 05:31:45;;;;;;;10.88;4.57;;;2.70;70.80;;;;;;4632356;28;20072;-71
2021/11/24 05:34:03;;;;;;;10.68;4.82;;;2.70;70.80;;;;;;4633009;28;20072;-72
2021/11/24 05:36:21;;;;;;;8.85;4.45;;;2.70;70.80;;;;;;4632476;28;20501;-72
2021/11/24 05:38:38;;;;;;;9.02;4.90;;;2.60;70.80;;;;;;4632784;28;20464;-72
2021/11/24 05:40:54;;;;;;;10.23;5.22;;;2.60;70.80;;;;;;4614670;28;20487;-71
2021/11/24 05:43:11;;;;;;;10.65;4.70;;;2.60;70.80;;;;;;4614523;28;20516;-72
2021/11/24 05:45:37;;;;;;;10.15;4.78;;;2.60;70.90;;;;;;4643645;28;20478;-72
2021/11/24 05:47:58;;;;;;;11.57;5.00;;;2.60;71.70;;;;;;4650480;28;20071;-70
2021/11/24 05:50:32;;;;;;;15.80;5.43;;;2.60;70.90;;;;;;4650996;28;20044;-72
2021/11/24 05:52:48;;;;;;;15.10;6.15;;;2.60;70.90;;;;;;4650030;28;20064;-72
2021/11/24 05:55:05;;;;;;;10.70;5.03;;;2.60;71.00;;;;;;4632896;28;20053;-72
2021/11/24 05:57:22;;;;;;;12.55;4.97;;;2.60;71.00;;;;;;4650156;28;20072;-72
2021/11/24 05:59:38;;;;;;;9.82;4.68;;;2.50;71.00;;;;;;4650946;28;20446;-70
2021/11/24 06:01:54;;;;;;;8.68;4.80;;;2.60;71.00;;;;;;4649717;28;20054;-71
2021/11/24 06:04:11;;;;;;;10.98;5.03;;;2.60;71.10;;;;;;4648659;28;20071;-72
2021/11/24 06:06:29;;;;;;;10.10;5.25;;;2.60;71.10;;;;;;4650029;28;20059;-71
2021/11/24 06:08:45;;;;;;;10.82;5.70;;;2.50;71.00;;;;;;4632652;28;20055;-71
2021/11/24 06:11:02;;;;;;;11.32;5.10;;;2.50;71.00;;;;;;4632137;28;20073;-70
2021/11/24 06:13:22;;;;;;;14.15;5.35;;;2.60;71.10;;;;;;4650426;28;20055;-70
2021/11/24 06:15:39;;;;;;;11.25;4.75;;;2.60;71.10;;;;;;4650358;28;20060;-70
2021/11/24 06:17:56;;;;;;;9.63;5.13;;;2.50;71.00;;;;;;4640566;28;20125;-70
2021/11/24 06:20:13;;;;;;;11.43;4.47;;;2.50;71.20;;;;;;4631907;28;20045;-69
2021/11/24 06:22:31;;;;;;;12.25;5.18;;;2.60;72.00;;;;;;4630772;28;20052;-70
2021/11/24 06:24:50;;;;;;;15.73;5.10;;;2.60;71.20;;;;;;4650077;28;20072;-73
2021/11/24 06:27:06;;;;;;;9.23;4.68;;;2.60;71.90;;;;;;4649230;28;20119;-72
2021/11/24 06:29:23;;;;;;;10.00;4.97;;;2.60;71.20;;;;;;4649849;28;20098;-72
2021/11/24 06:31:42;;;;;;;11.40;4.90;;;2.70;71.10;;;;;;4629504;28;20499;-72
2021/11/24 06:33:58;;;;;;;11.57;5.65;;;2.70;71.10;;;;;;4631619;28;20055;-74
2021/11/24 06:36:34;;;;;;;12.48;6.07;;;2.70;71.80;;;;;;4649275;28;20046;-73
2021/11/24 06:38:55;;;;;;;8.93;5.18;;;2.70;71.00;;;;;;4630587;28;20138;-73
2021/11/24 06:41:12;;;;;;;11.13;5.82;;;2.70;71.10;;;;;;4631455;28;20053;-73
2021/11/24 06:43:28;;;;;;;14.20;6.15;;;2.70;71.00;;;;;;4649692;28;20442;-73
2021/11/24 06:45:46;;;;;;;12.73;5.30;;;2.70;71.00;;;;;;4648014;28;20048;-72
2021/11/24 06:48:02;;;;;;;14.88;5.82;;;2.80;71.10;;;;;;4628490;28;20457;-73
2021/11/24 06:50:19;;;;;;;13.02;5.28;;;2.80;71.10;;;;;;4645835;28;20128;-73
2021/11/24 06:52:36;;;;;;;12.98;5.68;;;2.80;71.00;;;;;;4627501;28;20061;-73
2021/11/24 06:54:53;;;;;;;14.27;5.90;;;2.80;71.00;;;;;;4645769;28;20048;-72
2021/11/24 06:57:10;;;;;;;19.77;6.47;;;2.90;71.10;;;;;;4627463;28;20048;-72
2021/11/24 06:59:26;;;;;;;15.05;6.53;;;2.90;71.20;;;;;;4628357;28;20637;-72
2021/11/24 07:01:43;;;;;;;16.45;6.32;;;2.90;71.10;;;;;;4629465;28;20049;-73
2021/11/24 07:04:00;;;;;;;14.23;6.38;;;3.00;71.10;;;;;;4631351;28;20068;-73
2021/11/24 07:06:20;;;;;;;14.40;6.57;;;3.00;71.20;;;;;;4630935;28;20079;-71
2021/11/24 07:08:36;;;;;;;14.25;6.13;;;3.00;71.10;;;;;;4649374;28;20055;-71
2021/11/24 07:10:54;;;;;;;11.27;5.35;;;3.10;71.00;;;;;;4630659;28;20041;-72
2021/11/24 07:13:11;;;;;;;11.35;6.20;;;3.10;71.00;;;;;;4631145;28;20459;-71
2021/11/24 07:15:27;;;;;;;13.48;5.78;;;3.10;70.90;;;;;;4630168;28;20135;-72
2021/11/24 07:17:46;;;;;;;13.15;6.28;;;3.20;70.90;;;;;;4649507;28;20045;-71
2021/11/24 07:20:06;;;;;;;13.88;6.32;;;3.20;70.90;;;;;;4630485;28;20072;-71
2021/11/24 07:22:22;;;;;;;12.35;5.88;;;3.20;70.90;;;;;;4649146;28;20044;-71
2021/11/24 07:24:41;;;;;;;12.45;5.45;;;3.30;71.00;;;;;;4649086;28;20504;-71
2021/11/24 07:27:05;;;;;;;14.75;5.93;;;3.30;71.00;;;;;;4648826;28;20501;-71
2021/11/24 07:29:22;;;;;;;13.32;5.85;;;3.30;71.00;;;;;;4630954;28;20308;-71
2021/11/24 07:31:38;;;;;;;13.65;6.70;;;3.40;70.90;;;;;;4630687;28;20055;-72
2021/11/24 07:33:57;;;;;;;14.95;6.03;;;3.40;71.70;;;;;;4630762;28;20068;-71
2021/11/24 07:36:13;;;;;;;12.82;6.38;;;3.40;70.90;;;;;;4630468;28;20055;-72
2021/11/24 07:38:30;;;;;;;16.25;6.10;;;3.40;70.90;;;;;;4630781;28;20045;-72
2021/11/24 07:40:46;;;;;;;9.23;5.05;;;3.50;70.90;;;;;;4648224;28;20074;-71
2021/11/24 07:43:04;;;;;;;16.40;8.27;;;3.50;71.00;;;;;;4648922;28;20068;-71
2021/11/24 07:45:23;;;;;;;26.55;14.75;;;3.60;71.00;;;;;;4630083;28;20045;-73
2021/11/24 07:47:39;;;;;;;15.73;7.40;;;3.70;71.10;;;;;;4631014;28;20048;-74
2021/11/24 07:49:56;;;;;;;22.17;6.63;;;3.70;71.00;;;;;;4648155;28;20410;-73
2021/11/24 07:52:13;;;;;;;13.60;6.10;;;3.70;70.90;;;;;;4630738;28;20172;-73
2021/11/24 07:54:30;;;;;;;12.35;6.55;;;3.80;71.00;;;;;;4647837;28;20495;-73
2021/11/24 07:56:46;;;;;;;14.73;6.72;;;3.90;70.90;;;;;;4648875;28;20060;-73
2021/11/24 07:59:04;;;;;;;14.55;7.55;;;3.90;70.80;;;;;;4648012;28;20045;-74
2021/11/24 08:01:20;;;;;;;12.10;6.50;;;4.00;70.80;;;;;;4630643;28;20048;-71
2021/11/24 08:03:37;;;;;;;12.77;6.82;;;4.00;70.80;;;;;;4629997;28;20126;-71
2021/11/24 08:05:53;;;;;;;12.07;6.35;;;4.10;70.80;;;;;;4630746;28;20037;-72
2021/11/24 08:08:10;;;;;;;11.57;6.93;;;4.10;70.80;;;;;;4630215;28;20507;-72
2021/11/24 08:10:27;;;;;;;12.80;7.93;;;4.20;70.80;;;;;;4647729;28;20044;-72
2021/11/24 08:12:43;;;;;;;13.52;7.82;;;4.20;70.70;;;;;;4648490;28;20047;-72
2021/11/24 08:15:01;;;;;;;19.17;8.48;;;4.30;70.70;;;;;;4648050;28;20047;-71
2021/11/24 08:17:20;;;;;;;18.05;9.43;;;4.40;70.70;;;;;;4630950;28;20055;-72
2021/11/24 08:19:36;;;;;;;19.27;10.25;;;4.40;70.60;;;;;;4647846;28;20487;-72
2021/11/24 08:21:53;;;;;;;20.42;11.07;;;4.50;70.60;;;;;;4630785;28;20068;-71
2021/11/24 08:24:10;;;;;;;23.27;11.25;;;4.60;70.50;;;;;;4630204;28;20388;-71
2021/11/24 08:26:29;;;;;;;19.45;10.85;;;4.60;70.40;;;;;;4633989;28;20152;-71
2021/11/24 08:28:49;;;;;;;21.73;10.68;;;4.70;70.40;;;;;;4633417;28;20052;-71
2021/11/24 08:31:07;;;;;;;21.77;11.95;;;4.80;70.30;;;;;;4633325;28;20462;-71
2021/11/24 08:33:24;;;;;;;20.02;11.38;;;4.80;70.30;;;;;;4650668;28;20048;-72
2021/11/24 08:35:40;;;;;;;21.60;12.13;;;4.90;70.20;;;;;;4634313;28;20091;-72
2021/11/24 08:37:57;;;;;;;22.48;11.85;;;5.00;70.10;;;;;;4633430;28;20079;-71
2021/11/24 08:40:14;;;;;;;27.90;12.00;;;5.00;70.80;;;;;;4634095;28;20136;-71
2021/11/24 08:42:31;;;;;;;22.20;12.25;;;5.10;69.90;;;;;;4633412;28;20416;-71
2021/11/24 08:44:47;;;;;;;21.70;12.35;;;5.20;69.80;;;;;;4651942;28;20119;-70
2021/11/24 08:47:05;;;;;;;23.05;12.88;;;5.30;69.70;;;;;;4651114;28;20041;-71
2021/11/24 08:49:22;;;;;;;21.98;12.18;;;5.30;69.50;;;;;;4633602;28;20052;-71
2021/11/24 08:51:40;;;;;;;22.48;13.05;;;5.40;69.40;;;;;;4651596;28;20044;-71
2021/11/24 08:53:58;;;;;;;24.33;13.88;;;5.50;70.00;;;;;;4651200;28;20124;-72
2021/11/24 08:56:16;;;;;;;26.52;13.88;;;5.60;69.20;;;;;;4651716;28;20049;-72
2021/11/24 08:58:33;;;;;;;23.75;13.48;;;5.60;69.10;;;;;;4633135;28;20082;-72
2021/11/24 09:00:49;;;;;;;24.92;14.52;;;5.70;68.90;;;;;;4633866;28;20048;-72
2021/11/24 09:03:10;;;;;;;28.30;14.77;;;5.80;68.70;;;;;;4650838;28;20056;-72
2021/11/24 09:05:29;;;;;;;26.35;14.65;;;5.90;68.50;;;;;;4633703;28;20087;-71
2021/11/24 09:07:49;;;;;;;25.85;14.45;;;5.90;68.30;;;;;;4632710;28;20466;-72
2021/11/24 09:10:07;;;;;;;22.23;13.38;;;6.00;68.20;;;;;;4633666;28;20075;-72
2021/11/24 09:12:24;;;;;;;34.33;15.90;;;6.00;68.10;;;;;;4632536;28;20052;-72
2021/11/24 09:14:40;;;;;;;25.70;14.90;;;6.10;68.00;;;;;;4633635;28;20133;-72
2021/11/24 09:16:57;;;;;;;27.10;14.95;;;6.10;67.80;;;;;;4650516;28;20104;-71
2021/11/24 09:19:15;;;;;;;28.30;15.07;;;6.20;67.70;;;;;;4633471;28;20427;-71
2021/11/24 09:21:33;;;;;;;27.08;15.75;;;6.20;67.60;;;;;;4631516;28;20052;-72
2021/11/24 09:23:50;;;;;;;28.67;16.15;;;6.30;67.40;;;;;;4650341;28;20075;-71
2021/11/24 09:26:17;;;;;;;26.60;16.48;;;6.30;67.40;;;;;;4632646;28;20056;-71
2021/11/24 09:28:35;;;;;;;30.90;15.45;;;6.40;67.30;;;;;;4632819;28;20048;-71
2021/11/24 09:30:52;;;;;;;29.05;15.73;;;6.40;67.20;;;;;;4651396;28;20068;-71
2021/11/24 09:33:09;;;;;;;28.00;16.23;;;6.50;67.10;;;;;;4650576;28;20185;-71
2021/11/24 09:35:29;;;;;;;27.40;16.25;;;6.50;67.00;;;;;;4633473;28;20033;-70
2021/11/24 09:37:46;;;;;;;37.22;17.92;;;6.50;67.70;;;;;;4632595;28;20114;-71
2021/11/24 09:40:02;;;;;;;30.65;16.60;;;6.60;66.50;;;;;;4633386;28;20503;-70
2021/11/24 09:42:21;;;;;;;34.28;18.00;;;6.60;66.50;;;;;;4650259;28;20123;-70
2021/11/24 09:44:44;;;;;;;36.30;18.13;;;6.60;66.50;;;;;;4651451;28;20476;-70
2021/11/24 09:47:01;;;;;;;27.10;16.92;;;6.70;66.50;;;;;;4632345;28;20124;-70
2021/11/24 09:49:19;;;;;;;36.25;17.40;;;6.70;66.40;;;;;;4651137;28;20144;-70
2021/11/24 09:51:51;;;;;;;30.98;17.65;;;6.70;66.10;;;;;;4632162;28;20271;-71
2021/11/24 09:54:11;;;;;;;34.75;18.15;;;6.80;66.10;;;;;;4650813;28;20518;-71
2021/11/24 09:56:31;;;;;;;29.70;17.50;;;6.80;66.10;;;;;;4632650;28;20371;-71
2021/11/24 09:59:02;;;;;;;28.70;17.88;;;6.80;65.90;;;;;;4650310;28;20067;-70
2021/11/24 10:01:19;;;;;;;33.53;19.42;;;6.80;65.90;;;;;;4632938;28;20048;-70
2021/11/24 10:03:35;;;;;;;32.58;18.73;;;6.90;65.70;;;;;;4650117;28;20041;-70
2021/11/24 10:05:55;;;;;;;32.15;18.17;;;6.90;65.80;;;;;;4650740;28;20436;-70
2021/11/24 10:08:33;;;;;;;35.47;18.17;;;6.90;65.80;;;;;;4649944;28;20041;-71
2021/11/24 10:10:49;;;;;;;35.85;19.10;;;7.00;65.70;;;;;;4650909;28;20055;-69
2021/11/24 10:13:07;;;;;;;30.38;17.70;;;7.00;65.60;;;;;;4631844;28;20068;-70
2021/11/24 10:15:40;;;;;;;28.95;17.05;;;7.10;65.50;;;;;;4632666;28;20053;-70
2021/11/24 10:18:11;;;;;;;33.60;17.63;;;7.10;65.30;;;;;;4650141;28;20127;-71
2021/11/24 10:20:30;;;;;;;43.38;18.75;;;7.20;65.30;;;;;;4631889;28;20512;-70
2021/11/24 10:22:46;;;;;;;36.00;18.20;;;7.20;65.20;;;;;;4650198;28;20131;-69
2021/11/24 10:25:10;;;;;;;36.25;17.88;;;7.20;65.00;;;;;;4649804;28;20040;-71
2021/11/24 10:27:36;;;;;;;34.00;17.08;;;7.30;65.00;;;;;;4632578;28;20517;-70
2021/11/24 10:30:07;;;;;;;30.58;17.95;;;7.40;65.00;;;;;;4649484;28;20483;-70
2021/11/24 10:32:27;;;;;;;43.92;19.02;;;7.40;64.70;;;;;;4650508;28;20044;-72
2021/11/24 10:34:45;;;;;;;45.42;18.85;;;7.50;64.70;;;;;;4649794;28;20055;-69
2021/11/24 10:37:05;;;;;;;81.70;21.50;;;7.50;64.40;;;;;;4632468;28;20053;-69
2021/11/24 10:39:27;;;;;;;34.30;17.38;;;7.60;64.40;;;;;;4649748;28;20076;-71
2021/11/24 10:41:45;;;;;;;40.03;17.77;;;7.60;64.20;;;;;;4649929;28;20072;-70
2021/11/24 10:44:26;;;;;;;31.52;17.40;;;7.70;64.10;;;;;;4631982;28;20123;-73
2021/11/24 10:46:42;;;;;;;32.60;17.55;;;7.70;64.00;;;;;;4631415;28;20068;-70
2021/11/24 10:49:08;;;;;;;26.85;17.42;;;7.80;63.60;;;;;;4631941;28;20064;-73
2021/11/24 10:51:29;;;;;;;33.50;18.25;;;7.90;63.70;;;;;;4649095;28;20465;-71
2021/11/24 10:54:04;;;;;;;33.28;17.42;;;7.90;63.60;;;;;;4631909;28;20508;-73
2021/11/24 10:56:24;;;;;;;27.05;16.35;;;7.90;64.00;;;;;;4630969;28;20068;-73
2021/11/24 10:58:42;;;;;;;32.28;18.20;;;8.00;63.20;;;;;;4645576;28;20047;-73
2021/11/24 11:00:59;;;;;;;30.95;17.55;;;8.00;63.00;;;;;;4645111;28;20060;-72
2021/11/24 11:03:35;;;;;;;29.50;16.58;;;8.10;62.80;;;;;;4612868;28;20484;-72
2021/11/24 11:05:54;;;;;;;36.97;16.50;;;8.10;62.70;;;;;;4645688;28;20047;-73
2021/11/24 11:08:13;;;;;;;32.92;16.95;;;8.20;62.60;;;;;;4626610;28;20096;-74
2021/11/24 11:10:32;;;;;;;37.67;17.85;;;8.20;62.40;;;;;;4644096;28;20072;-73
2021/11/24 11:12:52;;;;;;;33.00;17.38;;;8.30;62.20;;;;;;4645084;28;20090;-72
2021/11/24 11:15:23;;;;;;;29.00;17.35;;;8.30;62.10;;;;;;4627073;28;20133;-73
2021/11/24 11:17:57;;;;;;;31.38;18.05;;;8.40;61.70;;;;;;4644133;28;20044;-73
2021/11/24 11:20:13;;;;;;;48.38;18.88;;;8.40;61.60;;;;;;4627724;28;20083;-74
2021/11/24 11:22:32;;;;;;;29.77;18.85;;;8.50;61.50;;;;;;4626221;28;20542;-73
2021/11/24 11:24:49;;;;;;;31.25;18.23;;;8.50;61.30;;;;;;4627554;28;20265;-73
2021/11/24 11:27:07;;;;;;;33.17;18.73;;;8.60;61.30;;;;;;4626923;28;20045;-73
2021/11/24 11:29:25;;;;;;;34.15;18.33;;;8.60;61.10;;;;;;4626976;28;20075;-73
2021/11/24 11:31:43;;;;;;;35.50;19.02;;;8.60;60.90;;;;;;4645007;28;20064;-72
2021/11/24 11:34:03;;;;;;;33.83;19.27;;;8.70;60.80;;;;;;4626229;28;20111;-73
2021/11/24 11:36:23;;;;;;;33.13;18.40;;;8.80;60.80;;;;;;4626831;28;20099;-73
2021/11/24 11:38:41;;;;;;;32.72;17.65;;;8.80;60.40;;;;;;4644596;28;20044;-73
2021/11/24 11:41:02;;;;;;;31.42;17.67;;;8.90;61.20;;;;;;4644963;28;20040;-73
2021/11/24 11:43:39;;;;;;;33.55;18.25;;;8.90;60.20;;;;;;4644179;28;20127;-73
2021/11/24 11:46:21;;;;;;;35.45;19.02;;;9.00;60.00;;;;;;4627360;28;20055;-74
2021/11/24 11:48:39;;;;;;;28.08;18.02;;;9.10;59.70;;;;;;4644241;28;20036;-73
2021/11/24 11:50:58;;;;;;;28.50;17.55;;;9.20;59.50;;;;;;4644701;28;20471;-75
2021/11/24 11:53:18;;;;;;;28.75;18.08;;;9.20;59.30;;;;;;4626470;28;20084;-74
2021/11/24 11:55:37;;;;;;;28.77;17.55;;;9.20;59.20;;;;;;4626134;28;20483;-74
2021/11/24 11:57:53;;;;;;;37.05;18.27;;;9.30;59.10;;;;;;4626622;28;20037;-73
2021/11/24 12:00:11;;;;;;;26.55;17.20;;;9.30;59.00;;;;;;4644146;28;20071;-74